Time;durP1;ratioP1;P1;durP2;ratioP2;P2;SDS_P1;SDS_P2;PMS_P1;PMS_P2;Temp;Humidity;BMP_temperature;BMP_pressure;BME280_temperature;BME280_humidity;BME280_pressure;Samples;Min_cycle;Max_cycle;Signal;HPM_P1;HPM_P2
2022/05/28 00:00:20;;;;;;;;;45.25;36.50;25.90;99.90;;;;;;5077943;28;8804;-65
2022/05/28 00:02:47;;;;;;;;;39.25;33.50;25.90;99.90;;;;;;5078490;28;8752;-66
2022/05/28 00:05:13;;;;;;;;;43.25;34.25;25.90;99.90;;;;;;5078374;28;8773;-66
2022/05/28 00:07:40;;;;;;;;;46.25;36.75;26.00;99.90;;;;;;5078049;28;8748;-66
2022/05/28 00:10:09;;;;;;;;;43.00;35.50;26.00;99.90;;;;;;5061197;28;8755;-66
2022/05/28 00:12:36;;;;;;;;;42.00;34.00;26.00;99.90;;;;;;5043636;28;8879;-66
2022/05/28 00:15:03;;;;;;;;;41.25;31.75;26.00;99.90;;;;;;5060719;28;8863;-66
2022/05/28 00:17:29;;;;;;;;;32.75;28.50;26.00;99.90;;;;;;5078029;28;8788;-66
2022/05/28 00:19:56;;;;;;;;;36.50;33.25;26.10;99.90;;;;;;5077040;28;8749;-66
2022/05/28 00:22:23;;;;;;;;;41.25;34.00;26.20;99.90;;;;;;5060405;28;8728;-66
2022/05/28 00:24:49;;;;;;;;;36.75;29.50;26.20;99.90;;;;;;5078101;28;8745;-66
2022/05/28 00:27:16;;;;;;;;;38.25;31.50;26.30;99.90;;;;;;5077472;28;8875;-66
2022/05/28 00:29:43;;;;;;;;;38.25;31.75;26.30;99.90;;;;;;5077813;28;10053;-66
2022/05/28 00:32:09;;;;;;;;;42.75;34.00;26.30;99.90;;;;;;5077755;28;8740;-66
2022/05/28 00:34:36;;;;;;;;;41.00;33.50;26.40;99.90;;;;;;5077240;28;8736;-66
2022/05/28 00:37:04;;;;;;;;;46.25;37.00;26.40;99.90;;;;;;5060801;28;8717;-66
2022/05/28 00:39:31;;;;;;;;;45.75;35.50;26.40;99.90;;;;;;5077400;28;8779;-67
2022/05/28 00:41:58;;;;;;;;;43.50;37.00;26.40;99.90;;;;;;5077599;28;8749;-66
2022/05/28 00:44:25;;;;;;;;;44.25;37.00;26.40;99.90;;;;;;5059557;28;8855;-66
2022/05/28 00:46:52;;;;;;;;;39.50;35.25;26.50;99.90;;;;;;5060384;28;8737;-66
2022/05/28 00:49:23;;;;;;;;;38.00;32.00;26.50;99.90;;;;;;5078241;28;8705;-65
2022/05/28 00:51:51;;;;;;;;;40.50;33.50;26.50;99.90;;;;;;5060453;28;8763;-66
2022/05/28 00:54:17;;;;;;;;;46.75;37.25;26.60;99.90;;;;;;5060950;28;8822;-66
2022/05/28 00:56:44;;;;;;;;;43.00;32.00;26.60;99.90;;;;;;5078432;28;8780;-66
2022/05/28 00:59:11;;;;;;;;;40.00;33.50;26.60;99.90;;;;;;5077654;28;8744;-66
2022/05/28 01:01:41;;;;;;;;;36.75;31.50;26.60;99.90;;;;;;5059304;28;8764;-66
2022/05/28 01:04:19;;;;;;;;;40.00;31.00;26.60;99.90;;;;;;5060698;28;8737;-66
2022/05/28 01:07:18;;;;;;;;;38.50;32.75;26.70;99.90;;;;;;5059469;28;8741;-66
2022/05/28 01:10:08;;;;;;;;;38.75;33.50;26.80;99.90;;;;;;5077421;28;8747;-66
2022/05/28 01:12:58;;;;;;;;;34.25;30.75;26.80;99.90;;;;;;5058812;28;8752;-66
2022/05/28 01:15:28;;;;;;;;;42.25;31.00;26.80;99.90;;;;;;5058783;28;9462;-66
2022/05/28 01:18:09;;;;;;;;;36.25;30.25;26.90;99.90;;;;;;5042991;28;8806;-66
2022/05/28 01:20:42;;;;;;;;;34.50;32.00;26.90;99.90;;;;;;5059257;28;8773;-66
2022/05/28 01:23:09;;;;;;;;;35.25;30.50;26.90;99.90;;;;;;5077135;28;8818;-66
2022/05/28 01:26:08;;;;;;;;;39.50;34.00;26.90;99.90;;;;;;5077108;28;8745;-66
2022/05/28 01:28:49;;;;;;;;;32.25;27.75;26.90;99.90;;;;;;5029896;28;8819;-66
2022/05/28 01:31:15;;;;;;;;;40.25;33.00;26.90;99.90;;;;;;5060736;28;8806;-66
2022/05/28 01:33:42;;;;;;;;;39.75;33.25;26.90;99.90;;;;;;5059751;28;8753;-66
2022/05/28 01:36:10;;;;;;;;;39.00;33.50;26.90;99.90;;;;;;5059905;28;8780;-66
2022/05/28 01:38:37;;;;;;;;;39.25;34.25;27.00;99.90;;;;;;5038702;28;8836;-66
2022/05/28 01:41:07;;;;;;;;;46.75;33.25;27.10;99.90;;;;;;5056037;28;8864;-66
2022/05/28 01:43:40;;;;;;;;;42.25;33.75;27.10;99.90;;;;;;5039036;28;8758;-66
2022/05/28 01:46:07;;;;;;;;;41.50;32.25;27.00;99.90;;;;;;5040479;28;8852;-66
2022/05/28 01:48:34;;;;;;;;;42.75;34.75;27.10;99.90;;;;;;5039442;28;8774;-67
2022/05/28 01:51:01;;;;;;;;;48.00;36.75;27.20;99.90;;;;;;5039620;28;8876;-66
2022/05/28 01:56:13;;;;;;;;;37.50;33.00;27.30;99.90;;;;;;5056121;28;8773;-66
2022/05/28 01:58:40;;;;;;;;;37.00;32.50;27.30;99.90;;;;;;5055359;28;8753;-66
2022/05/28 02:01:07;;;;;;;;;38.75;34.25;27.40;99.90;;;;;;5056338;28;8888;-66
2022/05/28 02:03:37;;;;;;;;;35.50;30.75;27.50;99.90;;;;;;5056940;28;8773;-67
2022/05/28 02:06:04;;;;;;;;;38.00;31.75;27.50;99.90;;;;;;5055758;28;8758;-66
2022/05/28 02:08:32;;;;;;;;;39.50;33.25;27.50;99.90;;;;;;5055269;28;8806;-66
2022/05/28 02:11:18;;;;;;;;;32.25;30.50;27.60;99.90;;;;;;5038959;28;8764;-66
2022/05/28 02:14:02;;;;;;;;;36.75;30.50;27.60;99.90;;;;;;5021306;28;8788;-66
2022/05/28 02:16:53;;;;;;;;;40.75;33.00;27.70;99.90;;;;;;5021133;28;8788;-66
2022/05/28 02:19:26;;;;;;;;;39.25;33.00;27.70;99.90;;;;;;5035360;28;9464;-65
2022/05/28 02:22:03;;;;;;;;;37.75;30.75;27.70;99.90;;;;;;5018983;28;9449;-66
2022/05/28 02:24:36;;;;;;;;;40.25;33.00;27.80;99.90;;;;;;5018529;28;8772;-66
2022/05/28 02:27:06;;;;;;;;;33.75;30.00;27.80;99.90;;;;;;5041693;28;8819;-66
2022/05/28 02:29:32;;;;;;;;;38.50;31.50;27.90;99.90;;;;;;5038447;28;8807;-66
2022/05/28 02:31:59;;;;;;;;;29.25;27.50;27.90;99.90;;;;;;5038317;28;8758;-66
2022/05/28 02:34:26;;;;;;;;;31.25;24.00;28.10;99.90;;;;;;5055964;28;8764;-65
2022/05/28 02:36:53;;;;;;;;;33.00;30.25;28.10;99.90;;;;;;5055331;28;9496;-66
2022/05/28 02:39:19;;;;;;;;;36.75;28.00;28.00;99.90;;;;;;5067701;28;8793;-66
2022/05/28 02:41:46;;;;;;;;;38.00;32.25;28.10;99.90;;;;;;5076671;28;8867;-66
2022/05/28 02:44:13;;;;;;;;;34.25;26.75;28.20;99.90;;;;;;5062148;28;8749;-66
2022/05/28 02:46:40;;;;;;;;;36.00;30.50;28.20;99.90;;;;;;5079740;28;8733;-66
2022/05/28 02:49:07;;;;;;;;;37.00;31.25;28.20;99.90;;;;;;5080675;28;8729;-66
2022/05/28 02:51:34;;;;;;;;;38.00;32.50;28.20;99.90;;;;;;5079494;28;9340;-66
2022/05/28 02:54:01;;;;;;;;;29.25;26.00;28.30;99.90;;;;;;5061789;28;8748;-66
2022/05/28 02:56:28;;;;;;;;;31.25;25.75;28.30;99.90;;;;;;5079351;28;8783;-66
2022/05/28 02:58:54;;;;;;;;;48.00;32.75;28.30;99.90;;;;;;5079516;28;8776;-66
2022/05/28 03:01:32;;;;;;;;;37.25;30.75;28.40;99.90;;;;;;5079823;28;8744;-66
2022/05/28 03:03:59;;;;;;;;;37.50;29.25;28.60;99.90;;;;;;5079979;28;8843;-66
2022/05/28 03:06:26;;;;;;;;;33.50;28.75;28.60;99.90;;;;;;5079243;28;8852;-66
2022/05/28 03:08:53;;;;;;;;;31.25;28.75;28.60;99.90;;;;;;5045163;28;8940;-66
2022/05/28 03:11:20;;;;;;;;;33.25;29.75;28.60;99.90;;;;;;5079128;28;8771;-65
2022/05/28 03:13:47;;;;;;;;;38.25;32.50;28.70;99.90;;;;;;5045246;28;8771;-64
2022/05/28 03:16:14;;;;;;;;;35.75;30.00;29.30;99.90;;;;;;5079791;28;8737;-64
2022/05/28 03:18:40;;;;;;;;;29.25;27.50;30.30;99.90;;;;;;5061040;28;8729;-64
2022/05/28 03:21:07;;;;;;;;;28.25;24.50;30.90;99.90;;;;;;5079542;28;9014;-64
2022/05/28 03:23:34;;;;;;;;;35.75;31.25;30.30;99.90;;;;;;5044828;28;8756;-64
2022/05/28 03:26:20;;;;;;;;;31.25;26.50;29.70;99.90;;;;;;5079014;28;8787;-64
2022/05/28 03:28:47;;;;;;;;;34.00;24.50;30.50;99.90;;;;;;5042531;28;8853;-64
2022/05/28 03:31:14;;;;;;;;;31.75;26.00;30.60;99.90;;;;;;5041571;28;9415;-64
2022/05/28 03:33:40;;;;;;;;;34.75;29.00;30.20;99.90;;;;;;5058756;28;8727;-65
2022/05/28 03:36:07;;;;;;;;;33.75;29.25;30.60;99.90;;;;;;5041025;28;9426;-66
2022/05/28 03:38:34;;;;;;;;;30.25;25.00;31.30;99.90;;;;;;5058417;28;8794;-65
2022/05/28 03:41:01;;;;;;;;;38.25;27.75;31.00;99.90;;;;;;5040829;28;8920;-64
2022/05/28 03:43:28;;;;;;;;;38.25;30.00;31.30;99.90;;;;;;5058776;28;8729;-64
2022/05/28 03:45:55;;;;;;;;;36.50;29.00;30.40;99.90;;;;;;5061671;28;8709;-64
2022/05/28 03:48:21;;;;;;;;;37.25;29.00;30.50;99.90;;;;;;5078288;28;8732;-64
2022/05/28 03:50:48;;;;;;;;;33.00;29.25;30.10;99.90;;;;;;5060451;28;8733;-65
2022/05/28 03:53:18;;;;;;;;;35.25;29.75;31.00;99.90;;;;;;5078113;28;8862;-65
2022/05/28 03:55:45;;;;;;;;;37.50;32.25;30.70;99.90;;;;;;5078500;28;8800;-64
2022/05/28 03:58:12;;;;;;;;;27.50;24.75;30.70;99.90;;;;;;5060702;28;8737;-64
2022/05/28 04:00:39;;;;;;;;;32.50;29.00;31.60;99.90;;;;;;5077728;28;8753;-65
2022/05/28 04:03:06;;;;;;;;;34.50;26.75;31.50;99.90;;;;;;5078342;28;8741;-64
2022/05/28 04:05:33;;;;;;;;;29.50;24.75;31.20;99.90;;;;;;5078421;28;8763;-64
2022/05/28 04:08:02;;;;;;;;;26.25;22.75;31.60;99.90;;;;;;5078577;28;8745;-64
2022/05/28 04:10:29;;;;;;;;;36.00;27.75;31.80;99.90;;;;;;5060360;28;8756;-63
2022/05/28 04:12:56;;;;;;;;;33.50;27.75;32.40;99.90;;;;;;5079003;28;8721;-63
2022/05/28 04:15:24;;;;;;;;;28.50;25.75;32.00;99.90;;;;;;5060466;28;8748;-64
2022/05/28 04:17:50;;;;;;;;;33.00;29.00;32.00;99.90;;;;;;5077720;28;8796;-63
2022/05/28 04:20:17;;;;;;;;;32.75;26.00;31.90;99.90;;;;;;5077809;28;9320;-61
2022/05/28 04:22:44;;;;;;;;;37.00;26.00;31.60;99.90;;;;;;5078233;28;8807;-64
2022/05/28 04:25:10;;;;;;;;;35.50;27.50;32.40;99.90;;;;;;5078190;28;8737;-63
2022/05/28 04:27:40;;;;;;;;;31.25;25.75;32.40;99.90;;;;;;5059673;28;8737;-63
2022/05/28 04:30:08;;;;;;;;;29.75;22.50;32.20;99.90;;;;;;5077653;28;8820;-64
2022/05/28 04:32:34;;;;;;;;;33.50;30.00;32.00;99.90;;;;;;5077388;28;9468;-63
2022/05/28 04:35:01;;;;;;;;;33.00;28.25;32.40;99.90;;;;;;5077945;28;9478;-63
2022/05/28 04:37:28;;;;;;;;;40.75;29.75;32.50;99.90;;;;;;5077952;28;8829;-63
2022/05/28 04:39:54;;;;;;;;;31.25;25.75;31.60;99.90;;;;;;5078909;28;8801;-63
2022/05/28 04:42:21;;;;;;;;;37.00;28.00;32.40;99.90;;;;;;5077520;28;8799;-64
2022/05/28 04:44:48;;;;;;;;;33.75;26.00;32.50;99.90;;;;;;5077609;28;9561;-63
2022/05/28 04:47:14;;;;;;;;;27.50;22.75;33.00;99.80;;;;;;5060178;28;8772;-64
2022/05/28 04:49:41;;;;;;;;;28.75;20.75;32.90;99.90;;;;;;5077584;28;8733;-64
2022/05/28 04:52:08;;;;;;;;;28.50;22.75;32.50;99.90;;;;;;5078680;28;8757;-64
2022/05/28 04:54:34;;;;;;;;;28.25;25.75;32.30;99.90;;;;;;5059910;28;9003;-64
2022/05/28 04:57:01;;;;;;;;;31.25;27.25;32.20;99.90;;;;;;5077863;28;8767;-64
2022/05/28 04:59:28;;;;;;;;;33.25;28.75;32.30;99.90;;;;;;5077244;28;8843;-64
2022/05/28 05:01:54;;;;;;;;;27.75;25.00;32.70;99.90;;;;;;5077463;28;8765;-64
2022/05/28 05:04:21;;;;;;;;;28.75;28.50;32.00;99.90;;;;;;5077276;28;9445;-63
2022/05/28 05:06:48;;;;;;;;;29.75;21.75;31.40;99.90;;;;;;5077823;28;8747;-64
2022/05/28 05:09:14;;;;;;;;;31.25;29.00;31.50;99.90;;;;;;5077612;28;8773;-64
2022/05/28 05:11:41;;;;;;;;;37.25;29.25;31.40;99.90;;;;;;5077604;28;8883;-64
2022/05/28 05:14:08;;;;;;;;;35.25;30.25;31.30;99.90;;;;;;5077514;28;8780;-64
2022/05/28 05:16:34;;;;;;;;;31.00;29.00;31.10;99.90;;;;;;5077341;28;8741;-64
2022/05/28 05:19:01;;;;;;;;;29.75;23.00;31.00;99.90;;;;;;5077776;28;8783;-63
2022/05/28 05:21:28;;;;;;;;;35.75;29.50;30.90;99.90;;;;;;5076729;28;8741;-63
2022/05/28 05:23:54;;;;;;;;;36.25;27.50;30.70;99.90;;;;;;5076912;28;8837;-63
2022/05/28 05:26:22;;;;;;;;;38.00;27.75;30.70;99.90;;;;;;5076784;28;8764;-64
2022/05/28 05:28:49;;;;;;;;;36.00;29.50;31.10;99.90;;;;;;5059575;28;8886;-64
2022/05/28 05:31:16;;;;;;;;;32.50;29.50;31.20;99.90;;;;;;5077337;28;8783;-63
2022/05/28 05:33:43;;;;;;;;;32.75;28.50;31.30;99.90;;;;;;5058944;28;8749;-63
2022/05/28 05:36:09;;;;;;;;;29.50;26.25;31.20;99.90;;;;;;5059078;28;8764;-63
2022/05/28 05:38:36;;;;;;;;;32.50;28.75;31.10;99.90;;;;;;5076278;28;9465;-64
2022/05/28 05:41:03;;;;;;;;;28.25;28.25;31.30;99.90;;;;;;5076730;28;9501;-64
2022/05/28 05:43:30;;;;;;;;;34.00;26.25;31.30;99.90;;;;;;5076337;28;9028;-63
2022/05/28 05:46:00;;;;;;;;;24.00;22.00;31.80;99.90;;;;;;5059398;28;8733;-63
2022/05/28 05:48:27;;;;;;;;;24.50;22.25;32.80;99.90;;;;;;5076034;28;8737;-63
2022/05/28 05:50:53;;;;;;;;;27.75;26.25;32.40;99.80;;;;;;5076668;28;8749;-63
2022/05/28 05:53:20;;;;;;;;;30.50;26.25;32.20;99.90;;;;;;5076454;28;8806;-63
2022/05/28 05:55:47;;;;;;;;;31.25;27.00;32.60;99.90;;;;;;5059159;28;8744;-63
2022/05/28 05:58:14;;;;;;;;;27.00;23.25;32.40;99.90;;;;;;5048427;28;8763;-64
2022/05/28 06:00:43;;;;;;;;;31.25;26.25;33.20;99.70;;;;;;5058075;28;8749;-63
2022/05/28 06:03:16;;;;;;;;;26.75;25.00;33.40;99.60;;;;;;5076433;28;8787;-63
2022/05/28 06:05:43;;;;;;;;;31.75;26.00;33.00;99.20;;;;;;5058894;28;8736;-63
2022/05/28 06:08:11;;;;;;;;;28.75;20.50;32.50;99.60;;;;;;5076516;28;8764;-63
2022/05/28 06:10:38;;;;;;;;;27.75;23.75;32.30;99.50;;;;;;5076406;28;8749;-64
2022/05/28 06:13:05;;;;;;;;;26.25;22.25;32.70;99.90;;;;;;5076619;28;9504;-63
2022/05/28 06:15:31;;;;;;;;;26.00;23.00;33.30;98.90;;;;;;5058767;28;8757;-63
2022/05/28 06:17:58;;;;;;;;;26.50;24.25;33.40;99.10;;;;;;5080224;28;8739;-64
2022/05/28 06:20:25;;;;;;;;;26.00;22.25;33.40;98.70;;;;;;5062417;28;8725;-63
2022/05/28 06:22:51;;;;;;;;;28.00;26.50;33.90;97.50;;;;;;5080421;28;8922;-63
2022/05/28 06:25:18;;;;;;;;;30.75;24.25;33.90;98.00;;;;;;5062734;28;8732;-62
2022/05/28 06:27:46;;;;;;;;;29.75;24.25;33.40;97.90;;;;;;5062105;28;8737;-63
2022/05/28 06:30:13;;;;;;;;;32.25;27.50;32.70;99.90;;;;;;5079910;28;8782;-64
2022/05/28 06:32:40;;;;;;;;;35.25;24.25;33.30;99.00;;;;;;5080209;28;8768;-63
2022/05/28 06:35:07;;;;;;;;;26.75;24.25;33.30;98.20;;;;;;5079142;28;8749;-63
2022/05/28 06:37:34;;;;;;;;;25.50;22.00;33.70;98.10;;;;;;5079558;28;8849;-63
2022/05/28 06:40:00;;;;;;;;;36.00;27.00;34.00;98.10;;;;;;5080698;28;9470;-63
2022/05/28 06:42:27;;;;;;;;;28.25;26.25;33.80;97.70;;;;;;5079949;28;8779;-63
2022/05/28 06:44:55;;;;;;;;;28.25;24.25;33.60;98.40;;;;;;5080612;28;8795;-63
2022/05/28 06:47:22;;;;;;;;;19.50;15.50;32.60;99.30;;;;;;5079831;28;9460;-63
2022/05/28 06:52:36;;;;;;;;;27.50;22.75;32.70;99.20;;;;;;5037975;28;8741;-63
2022/05/28 06:55:03;;;;;;;;;30.00;26.75;33.50;98.90;;;;;;5045788;28;8733;-63
2022/05/28 06:57:30;;;;;;;;;38.00;29.00;33.70;97.90;;;;;;5079286;28;8772;-63
2022/05/28 06:59:58;;;;;;;;;24.25;21.50;33.50;98.60;;;;;;5079569;28;8821;-63
2022/05/28 07:02:25;;;;;;;;;26.75;25.00;33.40;99.20;;;;;;5079325;28;8761;-63
2022/05/28 07:04:52;;;;;;;;;27.25;21.50;33.70;99.10;;;;;;5079590;28;8859;-63
2022/05/28 07:07:18;;;;;;;;;28.50;23.25;33.50;98.70;;;;;;5079840;28;8717;-62
2022/05/28 07:09:46;;;;;;;;;35.50;23.25;33.50;98.70;;;;;;5079617;28;8765;-63
2022/05/28 07:12:12;;;;;;;;;32.00;24.00;34.10;97.50;;;;;;5079348;28;8793;-63
2022/05/28 07:14:39;;;;;;;;;21.75;18.50;33.60;98.30;;;;;;5061561;28;8800;-64
2022/05/28 07:17:06;;;;;;;;;25.75;20.00;34.50;96.30;;;;;;5079357;28;8745;-63
2022/05/28 07:19:32;;;;;;;;;30.75;23.75;34.00;97.00;;;;;;5078869;28;8797;-63
2022/05/28 07:21:59;;;;;;;;;29.50;26.25;34.00;98.00;;;;;;5079907;28;8740;-63
2022/05/28 07:24:26;;;;;;;;;23.00;21.25;34.10;97.10;;;;;;5078662;28;8745;-63
2022/05/28 07:26:53;;;;;;;;;24.50;22.50;33.70;98.10;;;;;;5044640;28;8780;-63
2022/05/28 07:29:19;;;;;;;;;25.75;22.25;34.20;97.40;;;;;;5078175;28;9334;-63
2022/05/28 07:31:46;;;;;;;;;28.00;24.50;34.20;97.00;;;;;;5079087;28;8749;-63
2022/05/28 07:34:13;;;;;;;;;29.00;24.25;34.30;96.80;;;;;;5062037;28;9421;-63
2022/05/28 07:36:48;;;;;;;;;25.50;21.75;34.70;95.30;;;;;;5061092;28;8737;-64
2022/05/28 07:39:15;;;;;;;;;23.25;15.25;34.60;95.40;;;;;;5078601;28;8955;-63
2022/05/28 07:41:43;;;;;;;;;29.25;23.50;35.00;95.00;;;;;;5078958;28;8777;-64
2022/05/28 07:44:10;;;;;;;;;26.25;21.00;34.70;95.70;;;;;;5078878;28;8769;-63
2022/05/28 07:46:37;;;;;;;;;28.75;23.25;34.20;95.90;;;;;;5078276;28;8853;-63
2022/05/28 07:49:04;;;;;;;;;27.25;20.00;33.50;96.80;;;;;;5079280;28;8729;-64
2022/05/28 07:51:30;;;;;;;;;21.50;19.75;34.10;96.90;;;;;;5079241;28;8744;-64
2022/05/28 07:53:57;;;;;;;;;19.25;16.00;34.10;96.30;;;;;;5079027;28;8725;-64
2022/05/28 07:56:24;;;;;;;;;28.00;24.00;34.60;95.90;;;;;;5078389;28;8768;-64
2022/05/28 07:58:51;;;;;;;;;28.80;21.80;34.70;95.70;;;;;;5078530;28;8845;-63
2022/05/28 08:01:22;;;;;;;;;24.50;20.00;34.70;95.00;;;;;;5078942;28;8749;-62
2022/05/28 08:03:49;;;;;;;;;26.75;23.50;34.80;95.10;;;;;;5078581;28;8765;-63
2022/05/28 08:06:16;;;;;;;;;32.50;24.25;34.30;95.90;;;;;;5079118;28;8756;-64
2022/05/28 08:08:42;;;;;;;;;29.75;26.00;34.80;96.30;;;;;;5078003;28;8802;-64
2022/05/28 08:11:10;;;;;;;;;26.50;20.25;34.70;95.20;;;;;;5078625;28;8748;-64
2022/05/28 08:13:37;;;;;;;;;27.75;25.25;34.00;96.00;;;;;;5079427;28;8737;-64
2022/05/28 08:16:04;;;;;;;;;29.75;24.00;34.70;95.70;;;;;;5061359;28;8739;-64
2022/05/28 08:18:30;;;;;;;;;29.50;25.50;35.10;95.00;;;;;;5078009;28;8763;-65
2022/05/28 08:23:43;;;;;;;;;31.75;23.00;34.80;95.50;;;;;;5077921;28;9532;-64
2022/05/28 08:26:13;;;;;;;;;28.25;19.50;34.80;94.80;;;;;;5078500;28;8883;-64
2022/05/28 08:28:40;;;;;;;;;33.50;26.75;34.70;95.00;;;;;;5059679;28;8855;-64
2022/05/28 08:31:06;;;;;;;;;26.75;22.00;34.20;95.30;;;;;;5060729;28;8709;-64
2022/05/28 08:33:33;;;;;;;;;27.25;22.00;33.70;95.80;;;;;;5077375;28;8860;-64
2022/05/28 08:36:00;;;;;;;;;29.50;25.00;33.50;96.90;;;;;;5077905;28;8747;-64
2022/05/28 08:38:27;;;;;;;;;35.00;28.25;33.30;97.60;;;;;;5077133;28;8701;-64
2022/05/28 08:41:35;;;;;;;;;33.50;29.75;33.10;97.50;;;;;;5076756;28;8856;-64
2022/05/28 08:44:02;;;;;;;;;40.50;29.75;33.00;98.20;;;;;;4958061;28;8773;-63
2022/05/28 08:46:32;;;;;;;;;31.25;25.00;33.00;97.00;;;;;;5037578;28;9541;-64
2022/05/28 08:48:59;;;;;;;;;35.00;28.00;32.90;97.90;;;;;;5024521;28;8727;-64
2022/05/28 08:51:52;;;;;;;;;33.50;27.75;33.00;98.00;;;;;;5039371;28;8731;-64
2022/05/28 08:54:30;;;;;;;;;29.50;25.75;33.10;96.90;;;;;;5056996;28;8755;-64
2022/05/28 08:57:00;;;;;;;;;33.00;25.25;33.00;97.60;;;;;;5062112;28;8762;-64
2022/05/28 09:07:14;;;;;;;;;31.75;27.50;32.70;98.70;;;;;;5089650;22;8866;-96
2022/05/28 09:09:44;;;;;;;;;19.75;17.50;32.60;99.10;;;;;;5029940;28;8803;-95
2022/05/28 09:14:59;;;;;;;;;27.75;23.00;32.60;99.40;;;;;;5040331;28;8758;-96
2022/05/28 09:17:36;;;;;;;;;34.50;29.75;32.70;99.20;;;;;;5024769;28;8772;-96
2022/05/28 09:20:09;;;;;;;;;32.25;29.25;32.70;99.50;;;;;;5085591;22;8816;-96
2022/05/28 09:22:36;;;;;;;;;27.25;24.50;32.70;98.30;;;;;;5032501;23;8908;-96
2022/05/28 09:25:03;;;;;;;;;30.00;26.00;32.70;98.40;;;;;;4971481;28;8784;-94
2022/05/28 09:27:44;;;;;;;;;33.50;23.75;32.60;98.60;;;;;;4982890;23;8848;-64
2022/05/28 09:30:38;;;;;;;;;31.75;27.00;32.40;99.90;;;;;;5021215;28;8804;-62
2022/05/28 09:33:25;;;;;;;;;32.75;23.50;32.40;99.90;;;;;;5037536;28;8807;-62
2022/05/28 09:36:07;;;;;;;;;38.50;30.25;32.40;99.80;;;;;;5037505;28;8799;-63
2022/05/28 09:38:53;;;;;;;;;35.50;30.25;32.50;99.80;;;;;;5036703;28;8784;-63
2022/05/28 09:41:27;;;;;;;;;32.75;26.00;32.50;99.80;;;;;;5036740;28;8896;-63
2022/05/28 09:44:14;;;;;;;;;34.75;28.00;32.60;99.90;;;;;;5035728;28;8780;-63
2022/05/28 09:46:42;;;;;;;;;31.00;27.25;32.70;98.90;;;;;;5019574;28;8753;-63
2022/05/28 09:49:20;;;;;;;;;36.00;26.25;32.60;99.40;;;;;;5037794;28;8753;-63
2022/05/28 09:51:57;;;;;;;;;28.75;24.00;32.60;99.00;;;;;;5036201;28;8895;-63
2022/05/28 09:54:30;;;;;;;;;30.50;25.50;32.60;99.40;;;;;;5036940;28;8854;-63
2022/05/28 09:57:09;;;;;;;;;32.00;25.50;32.60;99.10;;;;;;5035493;28;8753;-63
2022/05/28 09:59:46;;;;;;;;;35.00;28.50;32.60;99.60;;;;;;5036817;28;8795;-63
2022/05/28 10:02:29;;;;;;;;;30.25;26.25;32.50;99.70;;;;;;5036601;28;8783;-63
2022/05/28 10:05:20;;;;;;;;;35.75;28.50;32.60;99.50;;;;;;5002594;28;8839;-63
2022/05/28 10:07:50;;;;;;;;;26.25;21.50;32.60;99.10;;;;;;5020018;28;8828;-63
2022/05/28 10:10:37;;;;;;;;;18.50;18.50;33.60;97.80;;;;;;5037531;28;8785;-62
2022/05/28 10:13:15;;;;;;;;;28.75;25.75;34.10;96.80;;;;;;4999838;28;8736;-63
2022/05/28 10:15:46;;;;;;;;;34.50;23.75;34.20;96.40;;;;;;5016915;28;8901;-63
2022/05/28 10:18:18;;;;;;;;;29.50;23.75;33.90;97.00;;;;;;4999357;28;8779;-63
2022/05/28 10:20:44;;;;;;;;;30.50;24.50;34.10;97.20;;;;;;5017042;28;8784;-63
2022/05/28 10:23:15;;;;;;;;;23.50;19.50;33.90;96.40;;;;;;4999555;28;8751;-63
2022/05/28 10:25:48;;;;;;;;;28.75;26.50;34.10;96.40;;;;;;4999252;28;8759;-62
2022/05/28 10:28:26;;;;;;;;;27.00;21.75;34.10;96.90;;;;;;5031975;28;8822;-63
2022/05/28 10:30:53;;;;;;;;;29.50;26.50;34.40;96.70;;;;;;5035422;28;8922;-62
2022/05/28 10:33:21;;;;;;;;;20.25;19.75;34.30;96.70;;;;;;5035891;28;8939;-61
2022/05/28 10:35:48;;;;;;;;;32.50;24.50;33.40;97.10;;;;;;5035094;28;8757;-62
2022/05/28 10:38:26;;;;;;;;;28.50;21.75;33.70;97.70;;;;;;5036021;28;8899;-62
2022/05/28 10:41:01;;;;;;;;;24.75;22.50;33.90;97.50;;;;;;5036120;28;8765;-63
2022/05/28 10:43:32;;;;;;;;;13.00;11.75;34.30;97.40;;;;;;5034738;28;8769;-62
2022/05/28 10:46:13;;;;;;;;;28.25;22.75;34.10;97.40;;;;;;5037240;28;8785;-63
2022/05/28 10:48:48;;;;;;;;;21.75;19.50;34.30;97.50;;;;;;5036582;28;8772;-63
2022/05/28 10:51:39;;;;;;;;;27.25;21.25;34.20;97.70;;;;;;5018903;28;8765;-62
2022/05/28 10:54:24;;;;;;;;;29.50;25.50;34.30;96.40;;;;;;5036094;28;8765;-62
2022/05/28 10:56:55;;;;;;;;;26.00;22.00;34.30;96.00;;;;;;5036759;28;8769;-62
2022/05/28 10:59:25;;;;;;;;;23.50;21.00;34.50;95.80;;;;;;5036264;28;8745;-61
2022/05/28 11:01:55;;;;;;;;;31.50;24.00;34.60;96.00;;;;;;5035814;28;9129;-62
2022/05/28 11:04:49;;;;;;;;;25.25;23.25;34.50;95.60;;;;;;5039162;28;8733;-62
2022/05/28 11:07:25;;;;;;;;;25.75;24.25;34.30;96.40;;;;;;5040115;28;9475;-63
2022/05/28 11:10:18;;;;;;;;;27.75;24.00;33.90;97.10;;;;;;5022465;28;8838;-63
2022/05/28 11:13:14;;;;;;;;;19.50;18.50;34.00;97.10;;;;;;5022702;28;9405;-62
2022/05/28 11:15:59;;;;;;;;;33.25;23.25;33.50;97.70;;;;;;5021051;28;8741;-62
2022/05/28 11:18:50;;;;;;;;;31.75;27.50;34.10;97.90;;;;;;5039229;28;8761;-62
2022/05/28 11:21:34;;;;;;;;;28.75;21.50;34.10;97.20;;;;;;5039839;28;8769;-62
2022/05/28 11:24:11;;;;;;;;;35.25;29.25;34.10;97.00;;;;;;5039532;28;8895;-62
2022/05/28 11:26:46;;;;;;;;;49.00;38.75;34.30;97.40;;;;;;5039124;28;8803;-63
2022/05/28 11:29:37;;;;;;;;;53.75;39.00;34.40;97.10;;;;;;5015532;28;8801;-63
2022/05/28 11:32:26;;;;;;;;;58.25;44.00;34.20;97.20;;;;;;5000350;28;8904;-63
2022/05/28 11:35:42;;;;;;;;;51.25;37.00;34.20;97.60;;;;;;4983370;28;8785;-63
2022/05/28 11:38:21;;;;;;;;;59.25;46.00;33.80;97.40;;;;;;4976320;28;10243;-63
2022/05/28 11:41:09;;;;;;;;;43.25;36.00;33.40;98.10;;;;;;4980604;28;8789;-63
2022/05/28 11:44:08;;;;;;;;;42.75;31.50;33.40;98.10;;;;;;5014891;28;8781;-63
2022/05/28 11:46:38;;;;;;;;;36.25;27.25;33.50;98.10;;;;;;4993958;28;8788;-63
2022/05/28 11:52:21;;;;;;;;;34.00;28.25;33.70;97.90;;;;;;4998154;28;8784;-63
2022/05/28 11:55:07;;;;;;;;;25.75;22.50;33.40;98.20;;;;;;4999306;28;8773;-63
2022/05/28 11:57:52;;;;;;;;;35.25;24.75;33.10;98.20;;;;;;4999208;28;8800;-63
2022/05/28 12:00:21;;;;;;;;;36.75;30.00;33.20;98.30;;;;;;5014249;28;8777;-62
2022/05/28 12:02:55;;;;;;;;;36.00;30.50;33.50;98.20;;;;;;5013656;28;8812;-63
2022/05/28 12:05:38;;;;;;;;;38.00;31.50;32.90;98.50;;;;;;5013632;28;8770;-62
2022/05/28 12:08:05;;;;;;;;;44.50;34.25;32.60;99.10;;;;;;5012713;28;9891;-63
2022/05/28 12:10:40;;;;;;;;;41.75;35.00;32.40;99.70;;;;;;5013449;28;8770;-63
2022/05/28 12:13:10;;;;;;;;;34.25;31.50;32.20;99.80;;;;;;4999601;28;8866;-63
2022/05/28 12:15:38;;;;;;;;;46.00;35.25;32.20;99.80;;;;;;4981839;28;8979;-63
2022/05/28 12:18:21;;;;;;;;;45.50;35.25;32.20;99.80;;;;;;4981685;28;8776;-63
2022/05/28 12:20:56;;;;;;;;;45.25;32.75;32.00;99.90;;;;;;4999310;28;8792;-63
2022/05/28 12:23:37;;;;;;;;;43.25;34.00;32.10;99.90;;;;;;4998571;28;8806;-62
2022/05/28 12:29:25;;;;;;;;;42.00;34.00;31.90;99.90;;;;;;4978001;28;8811;-63
2022/05/28 12:31:51;;;;;;;;;34.50;30.25;32.00;99.90;;;;;;4979395;28;8748;-63
2022/05/28 12:34:29;;;;;;;;;38.00;29.75;32.00;99.90;;;;;;4978231;28;8752;-62
2022/05/28 12:36:56;;;;;;;;;39.00;31.25;32.00;99.90;;;;;;4993253;28;8793;-63
2022/05/28 12:39:32;;;;;;;;;42.75;31.25;31.90;99.90;;;;;;4978669;28;8858;-63
2022/05/28 12:42:03;;;;;;;;;40.00;33.00;31.90;99.90;;;;;;4999186;28;8762;-63
2022/05/28 12:44:29;;;;;;;;;45.75;35.25;31.80;99.90;;;;;;4997136;28;8845;-63
2022/05/28 12:46:59;;;;;;;;;48.25;37.75;31.90;99.90;;;;;;4997080;28;8896;-63
2022/05/28 12:49:45;;;;;;;;;48.25;39.50;31.80;99.90;;;;;;4996459;28;9450;-59
2022/05/28 12:52:16;;;;;;;;;50.00;40.25;31.70;99.90;;;;;;4985947;28;8801;-63
2022/05/28 12:54:43;;;;;;;;;51.00;39.25;31.70;99.90;;;;;;4996967;28;9449;-63
2022/05/28 12:57:34;;;;;;;;;52.50;42.00;31.70;99.90;;;;;;4998153;28;8742;-63
2022/05/28 13:00:06;;;;;;;;;62.50;48.25;31.60;99.90;;;;;;4998119;28;8785;-63
2022/05/28 13:02:37;;;;;;;;;72.00;55.00;31.50;99.90;;;;;;4998155;28;8790;-63
2022/05/28 13:05:11;;;;;;;;;63.60;50.20;31.50;99.90;;;;;;5013652;28;8771;-63
2022/05/28 13:07:48;;;;;;;;;61.75;45.50;31.40;99.90;;;;;;5012644;28;8774;-63
2022/05/28 13:10:22;;;;;;;;;52.50;41.75;31.40;99.90;;;;;;5013271;28;8797;-63
2022/05/28 13:13:30;;;;;;;;;41.75;35.50;31.40;99.90;;;;;;4997803;28;8844;-63
2022/05/28 13:16:15;;;;;;;;;47.75;38.00;31.30;99.90;;;;;;4957611;28;8810;-63
2022/05/28 13:19:26;;;;;;;;;46.25;37.75;31.30;99.90;;;;;;4956581;28;10009;-62
2022/05/28 13:21:56;;;;;;;;;46.75;34.25;31.30;99.90;;;;;;4957169;28;8778;-63